createdAt,value
2019-06-10T00:00:18.446Z,16.02
2019-06-10T00:02:50.803Z,15.91
2019-06-10T00:05:21.687Z,16.01
2019-06-10T00:07:51.870Z,15.99
2019-06-10T00:10:22.042Z,16.05
2019-06-10T00:12:54.684Z,16.04
2019-06-10T00:15:24.522Z,16.08
2019-06-10T00:18:18.795Z,16.00
2019-06-10T00:20:30.600Z,15.97
2019-06-10T00:23:02.548Z,15.92
2019-06-10T00:25:33.723Z,15.94
2019-06-10T00:28:05.637Z,16.04
2019-06-10T00:30:35.856Z,16.06
2019-06-10T00:33:07.429Z,16.24
2019-06-10T00:35:41.179Z,16.24
2019-06-10T00:38:14.309Z,16.24
2019-06-10T00:40:43.958Z,16.23
2019-06-10T00:43:14.291Z,16.32
2019-06-10T00:45:45.423Z,16.22
2019-06-10T00:48:25.047Z,16.31
2019-06-10T00:50:47.827Z,16.30
2019-06-10T00:53:18.007Z,16.30
2019-06-10T00:55:48.189Z,16.31
2019-06-10T00:58:21.430Z,16.32
2019-06-10T01:00:51.619Z,16.24
2019-06-10T01:03:23.509Z,16.30
2019-06-10T01:05:53.570Z,16.24
2019-06-10T01:08:25.515Z,16.32
2019-06-10T01:10:56.533Z,16.24
2019-06-10T01:13:27.373Z,16.30
2019-06-10T01:15:57.872Z,16.32
2019-06-10T01:18:35.652Z,16.22
2019-06-10T01:21:01.934Z,16.19
2019-06-10T01:23:32.235Z,16.25
2019-06-10T01:26:02.650Z,16.27
2019-06-10T01:28:32.798Z,16.13
2019-06-10T01:31:09.412Z,16.12
2019-06-10T01:33:41.105Z,16.10
2019-06-10T01:36:13.309Z,15.95
2019-06-10T01:38:43.929Z,15.97
2019-06-10T01:41:15.563Z,16.00
2019-06-10T01:43:46.442Z,15.99
2019-06-10T01:46:17.497Z,15.99
2019-06-10T01:48:48.641Z,16.01
2019-06-10T01:51:21.341Z,16.00
2019-06-10T01:53:51.803Z,16.03
2019-06-10T01:56:21.887Z,15.97
2019-06-10T01:58:52.014Z,15.97
2019-06-10T02:01:31.700Z,16.00
2019-06-10T02:04:01.826Z,16.00
2019-06-10T02:06:32.019Z,15.90
2019-06-10T02:09:07.168Z,15.91
2019-06-10T02:11:41.425Z,15.98
2019-06-10T02:14:14.690Z,15.96
2019-06-10T02:16:44.147Z,15.95
2019-06-10T02:19:16.924Z,15.92
2019-06-10T02:21:46.946Z,15.97
2019-06-10T02:24:17.941Z,15.97
2019-06-10T02:26:51.482Z,16.08
2019-06-10T02:29:22.191Z,16.06
2019-06-10T02:31:53.451Z,16.10
2019-06-10T02:34:27.360Z,16.15
2019-06-10T02:36:56.413Z,16.11
2019-06-10T02:39:33.690Z,16.16
2019-06-10T02:42:04.974Z,16.23
2019-06-10T02:44:37.522Z,16.23
2019-06-10T02:47:07.510Z,16.28
2019-06-10T02:49:52.732Z,16.18
2019-06-10T02:52:22.675Z,16.17
2019-06-10T02:54:53.498Z,16.12
2019-06-10T02:57:30.445Z,16.12
2019-06-10T02:59:55.238Z,16.10
2019-06-10T03:02:31.253Z,16.14
2019-06-10T03:04:57.606Z,16.14
2019-06-10T03:07:31.061Z,16.02
2019-06-10T03:09:59.979Z,15.97
2019-06-10T03:12:30.084Z,15.99
2019-06-10T03:15:02.138Z,15.96
2019-06-10T03:17:32.767Z,16.09
2019-06-10T03:20:02.806Z,16.10
2019-06-10T03:22:32.899Z,16.02
2019-06-10T03:25:03.476Z,16.01
2019-06-10T03:27:33.529Z,15.91
2019-06-10T03:30:14.730Z,15.98
2019-06-10T03:32:41.004Z,16.01
2019-06-10T03:35:08.646Z,16.04
2019-06-10T03:37:42.416Z,16.06
2019-06-10T03:40:13.160Z,16.06
2019-06-10T03:42:43.611Z,16.04
2019-06-10T03:45:13.709Z,16.08
2019-06-10T03:47:44.803Z,16.06
2019-06-10T03:50:15.237Z,16.01
2019-06-10T03:52:45.857Z,16.02
2019-06-10T03:55:17.250Z,16.02
2019-06-10T03:57:47.439Z,16.05
2019-06-10T04:00:19.484Z,16.08
2019-06-10T04:02:49.974Z,16.06
2019-06-10T04:05:25.776Z,16.09
2019-06-10T04:07:56.697Z,16.11
2019-06-10T04:10:29.158Z,16.09
2019-06-10T04:12:59.016Z,16.18
2019-06-10T04:15:29.593Z,16.16
2019-06-10T04:18:00.384Z,16.05
2019-06-10T04:20:30.444Z,16.08
2019-06-10T04:23:03.236Z,16.09
2019-06-10T04:25:33.702Z,16.12
2019-06-10T04:28:04.200Z,16.05
2019-06-10T04:30:36.309Z,16.08
2019-06-10T04:33:06.420Z,16.08
2019-06-10T04:35:39.302Z,15.97
2019-06-10T04:38:09.563Z,15.97
2019-06-10T04:40:39.639Z,16.00
2019-06-10T04:43:12.445Z,15.95
2019-06-10T04:45:43.199Z,16.01
2019-06-10T04:48:14.334Z,15.99
2019-06-10T04:50:46.483Z,15.93
2019-06-10T04:53:18.622Z,15.97
2019-06-10T04:55:48.912Z,15.99
2019-06-10T04:58:19.522Z,15.87
2019-06-10T05:00:53.673Z,15.83
2019-06-10T05:03:26.493Z,15.81
2019-06-10T05:05:56.971Z,15.72
2019-06-10T05:08:28.472Z,15.68
2019-06-10T05:11:03.337Z,15.70
2019-06-10T05:13:33.699Z,15.81
2019-06-10T05:16:04.297Z,15.86
2019-06-10T05:18:38.411Z,15.99
2019-06-10T05:21:08.931Z,16.02
2019-06-10T05:23:39.719Z,15.92
2019-06-10T05:26:10.383Z,15.88
2019-06-10T05:28:43.225Z,15.87
2019-06-10T05:31:13.265Z,15.87
2019-06-10T05:33:43.435Z,15.98
2019-06-10T05:36:13.487Z,16.08
2019-06-10T05:38:43.829Z,16.26
2019-06-10T05:41:13.948Z,16.31
2019-06-10T05:43:44.324Z,16.32
2019-06-10T05:46:14.954Z,16.35
2019-06-10T05:48:45.615Z,16.31
2019-06-10T05:51:15.750Z,16.25
2019-06-10T05:53:46.533Z,16.20
2019-06-10T05:56:16.688Z,16.18
2019-06-10T05:58:46.886Z,16.13
2019-06-10T06:01:17.272Z,16.21
2019-06-10T06:03:48.214Z,16.20
2019-06-10T06:06:19.012Z,16.23
2019-06-10T06:08:49.471Z,16.27
2019-06-10T06:11:19.673Z,16.28
2019-06-10T06:13:52.365Z,16.32
2019-06-10T06:16:23.165Z,16.34
2019-06-10T06:18:53.449Z,16.32
2019-06-10T06:21:30.106Z,16.30
2019-06-10T06:23:56.328Z,16.23
2019-06-10T06:26:28.561Z,16.27
2019-06-10T06:28:58.726Z,16.31
2019-06-10T06:31:30.822Z,16.41
2019-06-10T06:34:03.002Z,16.41
2019-06-10T06:36:34.818Z,16.46
2019-06-10T06:39:07.678Z,16.34
2019-06-10T06:41:39.119Z,16.32
2019-06-10T06:44:09.408Z,16.28
2019-06-10T06:46:39.899Z,16.29
2019-06-10T06:49:12.785Z,16.37
2019-06-10T06:51:54.650Z,16.23
2019-06-10T06:54:16.211Z,16.32
2019-06-10T06:56:46.476Z,16.29
2019-06-10T06:59:16.801Z,16.27
2019-06-10T07:01:47.290Z,16.16
2019-06-10T07:04:17.609Z,16.17
2019-06-10T07:06:47.990Z,16.18
2019-06-10T07:09:18.241Z,16.18
2019-06-10T07:11:49.681Z,16.17
2019-06-10T07:14:20.359Z,16.21
2019-06-10T07:16:52.783Z,16.19
2019-06-10T07:19:22.712Z,16.17
2019-06-10T07:22:08.382Z,16.12
2019-06-10T07:24:25.321Z,16.03
2019-06-10T07:26:56.401Z,15.94
2019-06-10T07:29:26.522Z,15.88
2019-06-10T07:31:56.540Z,15.91
2019-06-10T07:34:28.564Z,15.81
2019-06-10T07:36:59.101Z,15.73
2019-06-10T07:39:29.497Z,15.66
2019-06-10T07:41:59.902Z,15.64
2019-06-10T07:44:30.476Z,15.70
2019-06-10T07:47:02.611Z,15.73
2019-06-10T07:49:33.871Z,15.81
2019-06-10T07:52:15.815Z,15.79
2019-06-10T07:54:37.546Z,15.77
2019-06-10T07:57:07.758Z,15.76
2019-06-10T07:59:39.455Z,15.73
2019-06-10T08:02:12.258Z,15.77
2019-06-10T08:04:44.127Z,15.85
2019-06-10T08:07:13.964Z,15.87
2019-06-10T08:09:45.608Z,15.91
2019-06-10T08:12:16.191Z,16.00
2019-06-10T08:14:47.980Z,16.12
2019-06-10T08:17:17.931Z,16.09
2019-06-10T08:19:50.887Z,16.18
2019-06-10T08:22:32.997Z,16.35
2019-06-10T08:24:52.537Z,16.49
2019-06-10T08:27:22.872Z,16.52
2019-06-10T08:30:13.131Z,16.50
2019-06-10T08:32:25.290Z,16.52
2019-06-10T08:34:55.392Z,16.55
2019-06-10T08:37:25.591Z,16.57
2019-06-10T08:39:55.988Z,16.60
2019-06-10T08:42:26.466Z,16.64
2019-06-10T08:44:59.894Z,16.70
2019-06-10T08:47:32.448Z,16.78
2019-06-10T08:50:02.696Z,16.74
2019-06-10T08:52:49.372Z,16.77
2019-06-10T08:55:04.975Z,16.75
2019-06-10T08:57:35.159Z,16.90
2019-06-10T09:00:11.638Z,16.96
2019-06-10T09:02:40.641Z,16.82
2019-06-10T09:05:16.356Z,16.61
2019-06-10T09:07:49.984Z,16.45
2019-06-10T09:10:18.930Z,16.36
2019-06-10T09:12:53.695Z,16.30
2019-06-10T09:15:23.506Z,16.24
2019-06-10T09:17:58.870Z,16.43
2019-06-10T09:20:29.078Z,16.43
2019-06-10T09:23:16.820Z,16.45
2019-06-10T09:25:33.404Z,16.55
2019-06-10T09:28:06.205Z,16.54
2019-06-10T09:30:36.206Z,16.71
2019-06-10T09:33:06.348Z,16.84
2019-06-10T09:35:36.432Z,16.87
2019-06-10T09:38:06.473Z,16.61
2019-06-10T09:41:05.924Z,16.51
2019-06-10T09:43:34.078Z,16.38
2019-06-10T09:46:04.261Z,16.32
2019-06-10T09:48:34.317Z,16.31
2019-06-10T09:51:04.363Z,16.34
2019-06-10T09:53:42.271Z,16.45
2019-06-10T09:56:06.857Z,16.46
2019-06-10T09:58:37.615Z,16.44
2019-06-10T10:01:08.226Z,16.48
2019-06-10T10:03:41.970Z,16.50
2019-06-10T10:06:15.673Z,16.56
2019-06-10T10:08:46.141Z,16.43
2019-06-10T10:11:15.507Z,16.43
2019-06-10T10:13:48.036Z,16.45
2019-06-10T10:16:17.383Z,16.40
2019-06-10T10:19:00.273Z,16.49
2019-06-10T10:21:24.855Z,16.68
2019-06-10T10:24:07.001Z,16.75
2019-06-10T10:26:27.352Z,16.74
2019-06-10T10:28:57.551Z,16.82
2019-06-10T10:31:27.617Z,16.89
2019-06-10T10:33:57.878Z,16.82
2019-06-10T10:36:28.369Z,16.84
2019-06-10T10:38:58.422Z,16.93
2019-06-10T10:41:35.563Z,17.08
2019-06-10T10:44:06.050Z,17.04
2019-06-10T10:46:36.548Z,17.03
2019-06-10T10:49:06.709Z,17.19
2019-06-10T10:51:37.243Z,17.23
2019-06-10T10:54:22.659Z,17.10
2019-06-10T10:56:40.069Z,17.00
2019-06-10T10:59:12.640Z,17.06
2019-06-10T11:01:43.958Z,17.08
2019-06-10T11:04:18.289Z,17.11
2019-06-10T11:06:55.639Z,17.41
2019-06-10T11:09:26.280Z,17.42
2019-06-10T11:11:57.484Z,17.47
2019-06-10T11:14:27.921Z,17.61
2019-06-10T11:16:59.002Z,17.71
2019-06-10T11:19:29.204Z,17.87
2019-06-10T11:21:59.240Z,17.85
2019-06-10T11:24:37.835Z,17.89
2019-06-10T11:27:03.158Z,17.80
2019-06-10T11:29:33.160Z,17.65
2019-06-10T11:32:03.307Z,17.61
2019-06-10T11:34:33.631Z,17.66
2019-06-10T11:37:04.131Z,17.66
2019-06-10T11:39:45.852Z,17.57
2019-06-10T11:42:16.861Z,17.56
2019-06-10T11:44:48.406Z,17.44
2019-06-10T11:47:18.923Z,17.43
2019-06-10T11:49:49.032Z,17.36
2019-06-10T11:52:20.036Z,17.37
2019-06-10T11:54:58.252Z,17.37
2019-06-10T11:57:22.922Z,17.52
2019-06-10T11:59:54.835Z,17.40
2019-06-10T12:02:25.017Z,17.38
2019-06-10T12:04:57.120Z,17.28
2019-06-10T12:07:27.306Z,17.23
2019-06-10T12:10:00.778Z,17.19
2019-06-10T12:12:33.701Z,17.27
2019-06-10T12:15:04.403Z,17.13
2019-06-10T12:17:46.989Z,17.11
2019-06-10T12:20:09.329Z,17.32
2019-06-10T12:22:42.275Z,17.57
2019-06-10T12:25:34.994Z,17.90
2019-06-10T12:27:44.019Z,18.35
2019-06-10T12:30:18.854Z,18.48
2019-06-10T12:32:48.935Z,19.01
2019-06-10T12:35:19.281Z,19.18
2019-06-10T12:37:51.262Z,19.27
2019-06-10T12:40:24.085Z,19.28
2019-06-10T12:42:56.722Z,19.39
2019-06-10T12:45:26.722Z,19.29
2019-06-10T12:47:58.764Z,19.10
2019-06-10T12:50:30.199Z,18.87
2019-06-10T12:53:04.942Z,18.74
2019-06-10T12:55:42.854Z,18.53
2019-06-10T12:58:06.062Z,18.44
2019-06-10T13:00:45.551Z,18.62
2019-06-10T13:03:16.897Z,18.42
2019-06-10T13:05:47.079Z,18.43
2019-06-10T13:08:20.477Z,18.39
2019-06-10T13:10:53.032Z,18.37
2019-06-10T13:13:23.708Z,18.18
2019-06-10T13:16:19.256Z,18.33
2019-06-10T13:18:52.608Z,18.49
2019-06-10T13:21:23.019Z,18.35
2019-06-10T13:23:55.918Z,18.32
2019-06-10T13:26:26.212Z,18.28
2019-06-10T13:28:56.963Z,18.08
2019-06-10T13:31:27.781Z,18.00
2019-06-10T13:34:04.224Z,18.05
2019-06-10T13:36:34.778Z,18.14
2019-06-10T13:39:17.766Z,18.19
2019-06-10T13:41:49.742Z,18.16
2019-06-10T13:44:25.255Z,18.33
2019-06-10T13:46:55.816Z,18.49
2019-06-10T13:49:26.577Z,18.76
2019-06-10T13:52:05.136Z,18.63
2019-06-10T13:54:37.459Z,18.71
2019-06-10T13:57:09.771Z,18.44
2019-06-10T13:59:39.606Z,18.52
2019-06-10T14:02:11.936Z,18.74
2019-06-10T14:04:47.041Z,18.93
2019-06-10T14:07:17.742Z,18.93
2019-06-10T14:09:53.096Z,19.17
2019-06-10T14:12:23.011Z,19.19
2019-06-10T14:14:53.431Z,19.71
2019-06-10T14:17:24.079Z,19.91
2019-06-10T14:19:54.619Z,19.91
2019-06-10T14:22:24.711Z,20.13
2019-06-10T14:24:55.156Z,20.25
2019-06-10T14:27:25.670Z,20.36
2019-06-10T14:29:57.040Z,20.56
2019-06-10T14:32:29.425Z,21.19
2019-06-10T14:35:00.955Z,21.84
2019-06-10T14:37:38.759Z,22.07
2019-06-10T14:40:07.084Z,22.20
2019-06-10T14:42:38.685Z,22.46
2019-06-10T14:45:10.792Z,22.46
2019-06-10T14:47:43.139Z,22.97
2019-06-10T14:50:17.203Z,22.65
2019-06-10T14:52:46.504Z,23.13
2019-06-10T14:55:18.488Z,23.21
2019-06-10T14:57:48.488Z,23.52
2019-06-10T15:00:18.660Z,23.62
2019-06-10T15:02:49.088Z,23.04
2019-06-10T15:05:19.602Z,22.68
2019-06-10T15:07:52.683Z,23.21
2019-06-10T15:10:23.315Z,23.51
2019-06-10T15:12:53.626Z,23.96
2019-06-10T15:15:24.872Z,23.39
2019-06-10T15:17:54.930Z,23.72
2019-06-10T15:20:25.038Z,23.35
2019-06-10T15:22:55.155Z,22.82
2019-06-10T15:25:28.313Z,22.86
2019-06-10T15:27:58.028Z,21.78
2019-06-10T15:30:31.442Z,21.14
2019-06-10T15:33:02.878Z,20.69
2019-06-10T15:35:32.856Z,20.56
2019-06-10T15:38:04.202Z,20.46
2019-06-10T15:40:34.569Z,20.10
2019-06-10T15:43:06.313Z,20.00
2019-06-10T15:45:37.315Z,19.78
2019-06-10T15:48:10.200Z,19.68
2019-06-10T15:50:43.024Z,19.50
2019-06-10T15:53:17.517Z,19.34
2019-06-10T15:56:09.129Z,19.48
2019-06-10T15:58:19.869Z,19.31
2019-06-10T16:00:53.239Z,19.31
2019-06-10T16:03:25.513Z,19.14
2019-06-10T16:05:55.307Z,19.07
2019-06-10T16:08:26.525Z,18.98
2019-06-10T16:10:57.242Z,18.88
2019-06-10T16:13:28.285Z,18.66
2019-06-10T16:15:58.929Z,18.65
2019-06-10T16:18:29.157Z,18.64
2019-06-10T16:20:59.250Z,18.59
2019-06-10T16:23:29.291Z,18.40
2019-06-10T16:25:59.491Z,18.44
2019-06-10T16:28:29.608Z,18.29
2019-06-10T16:31:02.513Z,18.20
2019-06-10T16:33:33.412Z,18.16
2019-06-10T16:36:04.186Z,18.07
2019-06-10T16:38:34.210Z,17.94
2019-06-10T16:41:04.679Z,17.95
2019-06-10T16:43:34.930Z,17.75
2019-06-10T16:46:05.370Z,17.82
2019-06-10T16:48:35.850Z,17.90
2019-06-10T16:51:06.023Z,17.91
2019-06-10T16:53:36.332Z,17.88
2019-06-10T16:56:06.452Z,17.81
2019-06-10T16:58:37.651Z,17.87
2019-06-10T17:01:07.772Z,17.81
2019-06-10T17:03:38.644Z,17.79
2019-06-10T17:06:08.841Z,17.86
2019-06-10T17:08:38.966Z,17.81
2019-06-10T17:11:12.238Z,17.72
2019-06-10T17:13:42.437Z,17.56
2019-06-10T17:16:12.971Z,17.52
2019-06-10T17:18:43.860Z,17.47
2019-06-10T17:21:14.455Z,17.44
2019-06-10T17:23:46.460Z,17.44
2019-06-10T17:26:16.659Z,17.50
2019-06-10T17:28:46.902Z,17.52
2019-06-10T17:31:17.274Z,17.37
2019-06-10T17:33:47.343Z,17.39
2019-06-10T17:36:18.591Z,17.27
2019-06-10T17:38:49.020Z,17.18
2019-06-10T17:41:21.322Z,17.21
2019-06-10T17:43:52.542Z,17.15
2019-06-10T17:46:24.993Z,17.09
2019-06-10T17:48:56.893Z,17.04
2019-06-10T17:51:29.812Z,17.04
2019-06-10T17:54:02.446Z,17.01
2019-06-10T17:56:35.982Z,17.07
2019-06-10T17:59:04.106Z,16.99
2019-06-10T18:01:35.647Z,17.00
2019-06-10T18:04:06.415Z,17.06
2019-06-10T18:06:37.310Z,16.94
2019-06-10T18:09:12.250Z,16.95
2019-06-10T18:11:43.168Z,16.95
2019-06-10T18:14:14.183Z,17.03
2019-06-10T18:16:44.201Z,17.01
2019-06-10T18:19:15.206Z,17.03
2019-06-10T18:21:46.047Z,17.01
2019-06-10T18:24:16.196Z,17.05
2019-06-10T18:26:46.485Z,17.04
2019-06-10T18:29:16.665Z,16.97
2019-06-10T18:31:47.572Z,16.86
2019-06-10T18:34:19.003Z,16.88
2019-06-10T18:36:49.270Z,16.87
2019-06-10T18:39:19.521Z,16.89
2019-06-10T18:41:52.717Z,16.86
2019-06-10T18:44:25.966Z,16.93
2019-06-10T18:46:54.611Z,16.88
2019-06-10T18:49:25.238Z,16.82
2019-06-10T18:51:55.681Z,16.71
2019-06-10T18:54:25.981Z,16.62
2019-06-10T18:56:56.951Z,16.60
2019-06-10T18:59:28.105Z,16.62
2019-06-10T19:01:58.871Z,16.58
2019-06-10T19:04:31.185Z,16.53
2019-06-10T19:07:02.912Z,16.51
2019-06-10T19:09:35.958Z,16.44
2019-06-10T19:12:06.015Z,16.43
2019-06-10T19:14:38.288Z,16.45
2019-06-10T19:17:08.661Z,16.43
2019-06-10T19:19:41.016Z,16.42
2019-06-10T19:22:13.280Z,16.38
2019-06-10T19:24:44.935Z,16.38
2019-06-10T19:27:15.976Z,16.37
2019-06-10T19:29:51.076Z,16.39
2019-06-10T19:32:17.928Z,16.36
2019-06-10T19:34:48.678Z,16.31
2019-06-10T19:37:19.033Z,16.31
2019-06-10T19:39:51.550Z,16.34
2019-06-10T19:42:21.207Z,16.32
2019-06-10T19:44:52.411Z,16.35
2019-06-10T19:47:23.516Z,16.36
2019-06-10T19:49:54.235Z,16.37
2019-06-10T19:52:24.398Z,16.37
2019-06-10T19:54:54.566Z,16.32
2019-06-10T19:57:24.823Z,16.28
2019-06-10T20:00:07.410Z,16.22
2019-06-10T20:02:27.701Z,16.15
2019-06-10T20:04:59.113Z,16.17
2019-06-10T20:07:29.719Z,16.12
2019-06-10T20:09:59.841Z,16.09
2019-06-10T20:12:32.444Z,16.09
2019-06-10T20:15:02.367Z,16.13
2019-06-10T20:17:32.870Z,16.15
2019-06-10T20:20:03.599Z,16.16
2019-06-10T20:22:34.805Z,16.12
2019-06-10T20:25:06.118Z,16.17
2019-06-10T20:27:37.537Z,16.11
2019-06-10T20:30:21.585Z,16.10
2019-06-10T20:32:45.496Z,16.13
2019-06-10T20:35:14.653Z,16.14
2019-06-10T20:37:47.359Z,16.22
2019-06-10T20:40:18.406Z,16.19
2019-06-10T20:42:49.078Z,16.14
2019-06-10T20:45:19.638Z,16.13
2019-06-10T20:47:50.158Z,16.09
2019-06-10T20:50:20.788Z,16.12
2019-06-10T20:52:52.734Z,16.10
2019-06-10T20:55:27.781Z,16.10
2019-06-10T20:58:03.284Z,16.11
2019-06-10T21:00:42.002Z,16.14
2019-06-10T21:03:13.405Z,16.00
2019-06-10T21:05:50.144Z,16.04
2019-06-10T21:08:22.634Z,16.00
2019-06-10T21:10:54.589Z,16.02
2019-06-10T21:13:25.456Z,16.04
2019-06-10T21:15:59.158Z,16.00
2019-06-10T21:18:27.938Z,16.01
2019-06-10T21:20:58.927Z,15.97
2019-06-10T21:23:29.128Z,15.89
2019-06-10T21:25:59.214Z,15.89
2019-06-10T21:28:29.260Z,15.97
2019-06-10T21:31:02.526Z,15.90
2019-06-10T21:33:33.348Z,15.88
2019-06-10T21:36:04.347Z,15.98
2019-06-10T21:38:34.490Z,16.00
2019-06-10T21:41:04.568Z,15.98
2019-06-10T21:43:34.685Z,16.03
2019-06-10T21:46:05.099Z,15.99
2019-06-10T21:48:35.413Z,15.93
2019-06-10T21:51:06.444Z,15.98
2019-06-10T21:53:36.819Z,15.93
2019-06-10T21:56:07.329Z,16.01
2019-06-10T21:58:38.124Z,15.94
2019-06-10T22:01:12.870Z,16.00
2019-06-10T22:03:40.094Z,15.94
2019-06-10T22:06:12.321Z,15.87
2019-06-10T22:08:44.182Z,15.90
2019-06-10T22:11:15.894Z,15.93
2019-06-10T22:13:46.143Z,15.80
2019-06-10T22:16:17.128Z,15.84
2019-06-10T22:18:48.802Z,15.80
2019-06-10T22:21:19.276Z,15.78
2019-06-10T22:23:49.290Z,15.62
2019-06-10T22:26:19.589Z,15.62
2019-06-10T22:28:52.673Z,15.55
2019-06-10T22:31:23.756Z,15.64
2019-06-10T22:33:55.801Z,15.44
2019-06-10T22:36:25.870Z,15.41
2019-06-10T22:38:59.000Z,15.38
2019-06-10T22:41:28.402Z,15.40
2019-06-10T22:43:59.774Z,15.38
2019-06-10T22:46:32.067Z,15.40
2019-06-10T22:49:03.072Z,15.42
2019-06-10T22:51:33.238Z,15.37
2019-06-10T22:54:03.783Z,15.30
2019-06-10T22:56:33.880Z,15.34
2019-06-10T22:59:03.918Z,15.32
2019-06-10T23:01:38.129Z,15.31
2019-06-10T23:04:06.414Z,15.27
2019-06-10T23:06:36.386Z,15.25
2019-06-10T23:09:07.018Z,15.29
2019-06-10T23:11:37.040Z,15.19
2019-06-10T23:14:07.506Z,15.17
2019-06-10T23:16:38.039Z,15.19
2019-06-10T23:19:08.505Z,15.19
2019-06-10T23:21:38.533Z,15.15
2019-06-10T23:26:53.793Z,15.17
2019-06-10T23:29:24.199Z,15.14
2019-06-10T23:32:01.774Z,15.16
2019-06-10T23:34:27.023Z,15.11
2019-06-10T23:36:58.464Z,15.17
2019-06-10T23:39:28.830Z,15.17
2019-06-10T23:41:59.577Z,15.16
2019-06-10T23:44:30.122Z,15.15
2019-06-10T23:47:03.631Z,15.12
2019-06-10T23:49:32.427Z,15.01
2019-06-10T23:52:04.974Z,15.04
2019-06-10T23:54:34.933Z,14.97
2019-06-10T23:57:05.955Z,14.90
2019-06-10T23:59:37.227Z,14.95
